sensor_id;sensor_type;location;lat;lon;timestamp;P1;durP1;ratioP1;P2;durP2;ratioP2
51732;SDS011;39139;53.144;6.244;2024-03-23T00:54:38;28.67;;;7.72;;
51732;SDS011;39139;53.144;6.244;2024-03-23T00:57:04;29.52;;;7.65;;
51732;SDS011;39139;53.144;6.244;2024-03-23T00:59:29;36.17;;;7.47;;
51732;SDS011;39139;53.144;6.244;2024-03-23T01:01:56;32.30;;;7.65;;
51732;SDS011;39139;53.144;6.244;2024-03-23T01:04:22;26.85;;;6.93;;
51732;SDS011;39139;53.144;6.244;2024-03-23T01:06:47;29.42;;;7.25;;
51732;SDS011;39139;53.144;6.244;2024-03-23T01:09:13;36.75;;;7.32;;
51732;SDS011;39139;53.144;6.244;2024-03-23T01:11:39;26.90;;;7.10;;
51732;SDS011;39139;53.144;6.244;2024-03-23T01:14:05;38.55;;;8.38;;
51732;SDS011;39139;53.144;6.244;2024-03-23T01:16:31;36.20;;;8.93;;
51732;SDS011;39139;53.144;6.244;2024-03-23T01:18:57;22.80;;;6.95;;
51732;SDS011;39139;53.144;6.244;2024-03-23T01:21:22;30.95;;;6.97;;
51732;SDS011;39139;53.144;6.244;2024-03-23T01:23:48;33.05;;;7.57;;
51732;SDS011;39139;53.144;6.244;2024-03-23T01:26:14;29.48;;;7.45;;
51732;SDS011;39139;53.144;6.244;2024-03-23T01:28:40;23.58;;;7.55;;
51732;SDS011;39139;53.144;6.244;2024-03-23T01:31:05;28.05;;;7.47;;
51732;SDS011;39139;53.144;6.244;2024-03-23T01:33:31;23.27;;;6.78;;
51732;SDS011;39139;53.144;6.244;2024-03-23T01:35:56;29.65;;;7.75;;
51732;SDS011;39139;53.144;6.244;2024-03-23T01:38:22;19.38;;;6.22;;
51732;SDS011;39139;53.144;6.244;2024-03-23T01:40:48;20.80;;;6.57;;
51732;SDS011;39139;53.144;6.244;2024-03-23T01:43:13;30.73;;;8.27;;
51732;SDS011;39139;53.144;6.244;2024-03-23T01:45:39;27.40;;;6.82;;
51732;SDS011;39139;53.144;6.244;2024-03-23T01:48:05;38.53;;;7.80;;
51732;SDS011;39139;53.144;6.244;2024-03-23T01:50:31;34.63;;;7.28;;
51732;SDS011;39139;53.144;6.244;2024-03-23T01:52:59;26.75;;;6.90;;
51732;SDS011;39139;53.144;6.244;2024-03-23T01:55:27;33.03;;;7.88;;
51732;SDS011;39139;53.144;6.244;2024-03-23T01:57:53;38.75;;;8.80;;
51732;SDS011;39139;53.144;6.244;2024-03-23T02:00:21;33.03;;;8.23;;
51732;SDS011;39139;53.144;6.244;2024-03-23T02:02:48;30.02;;;7.80;;
51732;SDS011;39139;53.144;6.244;2024-03-23T02:05:13;37.30;;;8.15;;
51732;SDS011;39139;53.144;6.244;2024-03-23T02:07:39;29.48;;;8.57;;
51732;SDS011;39139;53.144;6.244;2024-03-23T02:10:09;26.33;;;8.30;;
51732;SDS011;39139;53.144;6.244;2024-03-23T02:12:35;24.42;;;7.22;;
51732;SDS011;39139;53.144;6.244;2024-03-23T02:15:02;30.88;;;7.95;;
51732;SDS011;39139;53.144;6.244;2024-03-23T02:17:30;31.08;;;8.52;;
51732;SDS011;39139;53.144;6.244;2024-03-23T02:19:59;35.53;;;7.82;;
51732;SDS011;39139;53.144;6.244;2024-03-23T02:22:25;33.97;;;7.60;;
51732;SDS011;39139;53.144;6.244;2024-03-23T02:24:58;38.13;;;7.95;;
51732;SDS011;39139;53.144;6.244;2024-03-23T02:27:24;22.27;;;7.00;;
51732;SDS011;39139;53.144;6.244;2024-03-23T02:29:50;28.08;;;6.78;;
51732;SDS011;39139;53.144;6.244;2024-03-23T02:32:15;28.15;;;7.22;;
51732;SDS011;39139;53.144;6.244;2024-03-23T02:34:41;26.90;;;6.97;;
51732;SDS011;39139;53.144;6.244;2024-03-23T02:37:12;31.15;;;7.22;;
51732;SDS011;39139;53.144;6.244;2024-03-23T02:39:38;29.30;;;7.47;;
51732;SDS011;39139;53.144;6.244;2024-03-23T02:42:05;20.15;;;6.20;;
51732;SDS011;39139;53.144;6.244;2024-03-23T02:44:31;22.13;;;6.47;;
51732;SDS011;39139;53.144;6.244;2024-03-23T02:46:56;20.27;;;6.25;;
51732;SDS011;39139;53.144;6.244;2024-03-23T02:49:22;24.15;;;6.28;;
51732;SDS011;39139;53.144;6.244;2024-03-23T02:51:48;22.42;;;7.50;;
51732;SDS011;39139;53.144;6.244;2024-03-23T02:54:14;19.58;;;5.78;;
51732;SDS011;39139;53.144;6.244;2024-03-23T02:56:39;30.20;;;6.05;;
51732;SDS011;39139;53.144;6.244;2024-03-23T02:59:05;23.70;;;6.22;;
51732;SDS011;39139;53.144;6.244;2024-03-23T03:01:31;26.75;;;7.03;;
51732;SDS011;39139;53.144;6.244;2024-03-23T03:03:56;34.45;;;6.68;;
51732;SDS011;39139;53.144;6.244;2024-03-23T03:06:23;25.23;;;5.15;;
51732;SDS011;39139;53.144;6.244;2024-03-23T03:08:52;18.98;;;5.43;;
51732;SDS011;39139;53.144;6.244;2024-03-23T03:11:17;19.95;;;5.03;;
51732;SDS011;39139;53.144;6.244;2024-03-23T03:13:43;24.85;;;5.63;;
51732;SDS011;39139;53.144;6.244;2024-03-23T03:16:09;22.73;;;5.50;;
51732;SDS011;39139;53.144;6.244;2024-03-23T03:18:35;17.17;;;4.82;;
51732;SDS011;39139;53.144;6.244;2024-03-23T03:21:01;21.08;;;6.20;;
51732;SDS011;39139;53.144;6.244;2024-03-23T03:23:27;21.92;;;6.03;;
51732;SDS011;39139;53.144;6.244;2024-03-23T03:25:53;26.20;;;5.47;;
51732;SDS011;39139;53.144;6.244;2024-03-23T03:28:18;20.08;;;5.43;;
51732;SDS011;39139;53.144;6.244;2024-03-23T03:30:44;15.90;;;4.82;;
51732;SDS011;39139;53.144;6.244;2024-03-23T03:33:10;14.30;;;4.78;;
51732;SDS011;39139;53.144;6.244;2024-03-23T03:35:36;18.70;;;5.32;;
51732;SDS011;39139;53.144;6.244;2024-03-23T03:38:02;18.83;;;5.28;;
51732;SDS011;39139;53.144;6.244;2024-03-23T03:40:29;24.45;;;5.00;;
51732;SDS011;39139;53.144;6.244;2024-03-23T03:42:55;22.45;;;5.22;;
51732;SDS011;39139;53.144;6.244;2024-03-23T03:45:21;18.50;;;5.15;;
51732;SDS011;39139;53.144;6.244;2024-03-23T03:47:46;18.85;;;5.35;;
51732;SDS011;39139;53.144;6.244;2024-03-23T03:50:12;16.63;;;5.47;;
51732;SDS011;39139;53.144;6.244;2024-03-23T03:52:37;18.80;;;4.57;;
51732;SDS011;39139;53.144;6.244;2024-03-23T03:55:03;18.33;;;5.50;;
51732;SDS011;39139;53.144;6.244;2024-03-23T03:57:38;26.30;;;5.65;;
51732;SDS011;39139;53.144;6.244;2024-03-23T04:00:03;26.73;;;5.53;;
51732;SDS011;39139;53.144;6.244;2024-03-23T04:02:29;20.10;;;5.57;;
51732;SDS011;39139;53.144;6.244;2024-03-23T04:04:55;13.15;;;5.47;;
51732;SDS011;39139;53.144;6.244;2024-03-23T04:07:20;19.60;;;5.28;;
51732;SDS011;39139;53.144;6.244;2024-03-23T04:09:47;14.80;;;4.35;;
51732;SDS011;39139;53.144;6.244;2024-03-23T04:12:14;21.73;;;4.10;;
51732;SDS011;39139;53.144;6.244;2024-03-23T04:14:40;16.95;;;5.60;;
51732;SDS011;39139;53.144;6.244;2024-03-23T04:17:06;25.05;;;5.82;;
51732;SDS011;39139;53.144;6.244;2024-03-23T04:19:32;25.30;;;5.25;;
51732;SDS011;39139;53.144;6.244;2024-03-23T04:21:57;25.58;;;5.35;;
51732;SDS011;39139;53.144;6.244;2024-03-23T04:24:23;20.30;;;5.15;;
51732;SDS011;39139;53.144;6.244;2024-03-23T04:26:51;25.08;;;6.28;;
51732;SDS011;39139;53.144;6.244;2024-03-23T04:29:16;32.03;;;5.82;;
51732;SDS011;39139;53.144;6.244;2024-03-23T04:31:42;29.63;;;5.03;;
51732;SDS011;39139;53.144;6.244;2024-03-23T04:34:07;22.98;;;5.47;;
51732;SDS011;39139;53.144;6.244;2024-03-23T04:36:33;24.45;;;4.97;;
51732;SDS011;39139;53.144;6.244;2024-03-23T04:38:59;25.92;;;5.10;;
51732;SDS011;39139;53.144;6.244;2024-03-23T04:41:25;22.48;;;4.45;;
51732;SDS011;39139;53.144;6.244;2024-03-23T04:43:51;32.42;;;5.90;;
51732;SDS011;39139;53.144;6.244;2024-03-23T04:46:17;16.75;;;4.40;;
51732;SDS011;39139;53.144;6.244;2024-03-23T04:48:42;25.30;;;5.60;;
51732;SDS011;39139;53.144;6.244;2024-03-23T04:51:09;19.80;;;4.20;;
51732;SDS011;39139;53.144;6.244;2024-03-23T04:53:37;18.08;;;5.20;;
51732;SDS011;39139;53.144;6.244;2024-03-23T04:56:03;20.85;;;5.38;;
51732;SDS011;39139;53.144;6.244;2024-03-23T04:58:29;19.20;;;4.82;;
51732;SDS011;39139;53.144;6.244;2024-03-23T05:00:55;24.60;;;5.57;;
51732;SDS011;39139;53.144;6.244;2024-03-23T05:03:21;21.38;;;5.60;;
51732;SDS011;39139;53.144;6.244;2024-03-23T05:05:47;36.25;;;5.07;;
51732;SDS011;39139;53.144;6.244;2024-03-23T05:08:14;21.95;;;5.32;;
51732;SDS011;39139;53.144;6.244;2024-03-23T05:10:41;18.67;;;4.75;;
51732;SDS011;39139;53.144;6.244;2024-03-23T05:13:07;16.60;;;4.50;;
51732;SDS011;39139;53.144;6.244;2024-03-23T05:15:33;19.10;;;4.85;;
51732;SDS011;39139;53.144;6.244;2024-03-23T05:17:58;21.25;;;4.38;;
51732;SDS011;39139;53.144;6.244;2024-03-23T05:20:24;31.45;;;5.32;;
51732;SDS011;39139;53.144;6.244;2024-03-23T05:22:50;16.80;;;4.57;;
51732;SDS011;39139;53.144;6.244;2024-03-23T05:25:15;15.10;;;3.92;;
51732;SDS011;39139;53.144;6.244;2024-03-23T05:27:41;18.55;;;4.05;;
51732;SDS011;39139;53.144;6.244;2024-03-23T05:30:07;20.05;;;4.25;;
51732;SDS011;39139;53.144;6.244;2024-03-23T05:32:34;20.60;;;4.03;;
51732;SDS011;39139;53.144;6.244;2024-03-23T05:35:00;16.30;;;3.65;;
51732;SDS011;39139;53.144;6.244;2024-03-23T05:37:26;19.08;;;4.40;;
51732;SDS011;39139;53.144;6.244;2024-03-23T05:39:51;29.45;;;5.22;;
51732;SDS011;39139;53.144;6.244;2024-03-23T05:42:17;29.85;;;4.78;;
51732;SDS011;39139;53.144;6.244;2024-03-23T05:44:47;18.85;;;4.47;;
51732;SDS011;39139;53.144;6.244;2024-03-23T05:47:12;13.27;;;2.78;;
51732;SDS011;39139;53.144;6.244;2024-03-23T05:49:39;12.93;;;3.25;;
51732;SDS011;39139;53.144;6.244;2024-03-23T05:52:11;8.13;;;2.85;;
51732;SDS011;39139;53.144;6.244;2024-03-23T05:54:37;12.63;;;3.37;;
51732;SDS011;39139;53.144;6.244;2024-03-23T05:57:03;12.77;;;2.90;;
51732;SDS011;39139;53.144;6.244;2024-03-23T05:59:29;12.00;;;3.22;;
51732;SDS011;39139;53.144;6.244;2024-03-23T06:01:54;11.05;;;3.85;;
51732;SDS011;39139;53.144;6.244;2024-03-23T06:04:20;15.63;;;3.50;;
51732;SDS011;39139;53.144;6.244;2024-03-23T06:06:48;11.77;;;3.40;;
51732;SDS011;39139;53.144;6.244;2024-03-23T06:09:14;11.05;;;3.00;;
51732;SDS011;39139;53.144;6.244;2024-03-23T06:11:40;9.90;;;2.83;;
51732;SDS011;39139;53.144;6.244;2024-03-23T06:14:05;7.50;;;2.90;;
51732;SDS011;39139;53.144;6.244;2024-03-23T06:16:31;10.90;;;2.92;;
51732;SDS011;39139;53.144;6.244;2024-03-23T06:18:57;11.52;;;3.17;;
51732;SDS011;39139;53.144;6.244;2024-03-23T06:21:23;10.32;;;3.33;;
51732;SDS011;39139;53.144;6.244;2024-03-23T06:23:51;6.20;;;3.03;;
51732;SDS011;39139;53.144;6.244;2024-03-23T06:26:18;9.32;;;3.20;;
51732;SDS011;39139;53.144;6.244;2024-03-23T06:28:44;17.13;;;3.63;;
51732;SDS011;39139;53.144;6.244;2024-03-23T06:31:10;11.70;;;3.47;;
51732;SDS011;39139;53.144;6.244;2024-03-23T06:33:36;8.65;;;3.05;;
51732;SDS011;39139;53.144;6.244;2024-03-23T06:36:02;13.32;;;4.05;;
51732;SDS011;39139;53.144;6.244;2024-03-23T06:38:28;9.75;;;3.25;;
51732;SDS011;39139;53.144;6.244;2024-03-23T06:40:54;11.07;;;4.28;;
51732;SDS011;39139;53.144;6.244;2024-03-23T06:43:19;17.83;;;4.95;;
51732;SDS011;39139;53.144;6.244;2024-03-23T06:45:52;12.55;;;4.22;;
51732;SDS011;39139;53.144;6.244;2024-03-23T06:48:20;6.75;;;3.30;;
51732;SDS011;39139;53.144;6.244;2024-03-23T06:50:46;10.55;;;2.90;;
51732;SDS011;39139;53.144;6.244;2024-03-23T06:53:12;2.25;;;1.48;;
51732;SDS011;39139;53.144;6.244;2024-03-23T06:55:39;3.00;;;0.80;;
51732;SDS011;39139;53.144;6.244;2024-03-23T06:58:04;6.07;;;0.93;;
51732;SDS011;39139;53.144;6.244;2024-03-23T07:00:30;8.27;;;0.93;;
51732;SDS011;39139;53.144;6.244;2024-03-23T07:02:57;4.75;;;0.68;;
51732;SDS011;39139;53.144;6.244;2024-03-23T07:05:22;5.47;;;0.80;;
51732;SDS011;39139;53.144;6.244;2024-03-23T07:07:48;1.88;;;0.50;;
51732;SDS011;39139;53.144;6.244;2024-03-23T07:10:14;1.45;;;0.40;;
51732;SDS011;39139;53.144;6.244;2024-03-23T07:12:40;1.80;;;0.75;;
51732;SDS011;39139;53.144;6.244;2024-03-23T07:15:05;2.17;;;0.80;;
51732;SDS011;39139;53.144;6.244;2024-03-23T07:17:31;4.68;;;0.57;;
51732;SDS011;39139;53.144;6.244;2024-03-23T07:19:58;3.63;;;0.70;;
51732;SDS011;39139;53.144;6.244;2024-03-23T07:22:23;9.77;;;1.52;;
51732;SDS011;39139;53.144;6.244;2024-03-23T07:24:49;7.55;;;1.15;;
51732;SDS011;39139;53.144;6.244;2024-03-23T07:27:15;9.00;;;1.35;;
51732;SDS011;39139;53.144;6.244;2024-03-23T07:29:40;6.25;;;1.60;;
51732;SDS011;39139;53.144;6.244;2024-03-23T07:32:06;9.38;;;1.83;;
51732;SDS011;39139;53.144;6.244;2024-03-23T07:34:31;7.00;;;1.88;;
51732;SDS011;39139;53.144;6.244;2024-03-23T07:36:57;9.00;;;1.77;;
51732;SDS011;39139;53.144;6.244;2024-03-23T07:39:23;14.63;;;2.33;;
51732;SDS011;39139;53.144;6.244;2024-03-23T07:41:49;12.65;;;2.30;;
51732;SDS011;39139;53.144;6.244;2024-03-23T07:44:15;11.77;;;1.83;;
51732;SDS011;39139;53.144;6.244;2024-03-23T07:46:40;8.57;;;1.92;;
51732;SDS011;39139;53.144;6.244;2024-03-23T07:49:06;8.57;;;1.92;;
51732;SDS011;39139;53.144;6.244;2024-03-23T07:51:32;11.18;;;2.05;;
51732;SDS011;39139;53.144;6.244;2024-03-23T07:53:58;9.15;;;2.28;;
51732;SDS011;39139;53.144;6.244;2024-03-23T07:56:24;11.73;;;2.40;;
51732;SDS011;39139;53.144;6.244;2024-03-23T07:58:50;13.25;;;2.53;;
51732;SDS011;39139;53.144;6.244;2024-03-23T08:01:15;13.73;;;2.65;;
51732;SDS011;39139;53.144;6.244;2024-03-23T08:03:43;9.35;;;2.42;;
51732;SDS011;39139;53.144;6.244;2024-03-23T08:06:10;13.65;;;2.92;;
51732;SDS011;39139;53.144;6.244;2024-03-23T08:08:37;16.63;;;2.92;;
51732;SDS011;39139;53.144;6.244;2024-03-23T08:11:03;13.98;;;2.75;;
51732;SDS011;39139;53.144;6.244;2024-03-23T08:13:29;8.80;;;2.72;;
51732;SDS011;39139;53.144;6.244;2024-03-23T08:16:02;12.80;;;2.70;;
51732;SDS011;39139;53.144;6.244;2024-03-23T08:18:29;15.23;;;2.53;;
51732;SDS011;39139;53.144;6.244;2024-03-23T08:20:59;12.82;;;3.15;;
51732;SDS011;39139;53.144;6.244;2024-03-23T08:23:29;14.43;;;3.05;;
51732;SDS011;39139;53.144;6.244;2024-03-23T08:26:01;19.45;;;3.08;;
51732;SDS011;39139;53.144;6.244;2024-03-23T08:28:28;9.25;;;2.47;;
51732;SDS011;39139;53.144;6.244;2024-03-23T08:30:54;12.05;;;2.58;;
51732;SDS011;39139;53.144;6.244;2024-03-23T08:33:20;21.63;;;3.15;;
51732;SDS011;39139;53.144;6.244;2024-03-23T08:35:56;20.52;;;3.03;;
51732;SDS011;39139;53.144;6.244;2024-03-23T08:38:24;11.15;;;2.25;;
51732;SDS011;39139;53.144;6.244;2024-03-23T08:41:00;15.95;;;3.08;;
51732;SDS011;39139;53.144;6.244;2024-03-23T08:43:27;13.88;;;2.90;;
51732;SDS011;39139;53.144;6.244;2024-03-23T08:46:02;15.57;;;2.45;;
51732;SDS011;39139;53.144;6.244;2024-03-23T08:48:29;13.35;;;3.17;;
51732;SDS011;39139;53.144;6.244;2024-03-23T08:51:05;13.82;;;1.98;;
51732;SDS011;39139;53.144;6.244;2024-03-23T08:53:32;14.75;;;2.67;;
51732;SDS011;39139;53.144;6.244;2024-03-23T08:55:58;12.85;;;2.72;;
51732;SDS011;39139;53.144;6.244;2024-03-23T08:58:26;14.75;;;2.78;;
51732;SDS011;39139;53.144;6.244;2024-03-23T09:00:53;16.40;;;3.13;;
51732;SDS011;39139;53.144;6.244;2024-03-23T09:03:23;12.43;;;2.83;;
51732;SDS011;39139;53.144;6.244;2024-03-23T09:05:49;14.73;;;2.97;;
51732;SDS011;39139;53.144;6.244;2024-03-23T09:08:15;15.88;;;2.50;;
51732;SDS011;39139;53.144;6.244;2024-03-23T09:10:41;11.02;;;2.25;;
51732;SDS011;39139;53.144;6.244;2024-03-23T09:13:07;17.42;;;2.95;;
51732;SDS011;39139;53.144;6.244;2024-03-23T09:15:37;10.35;;;1.65;;
51732;SDS011;39139;53.144;6.244;2024-03-23T09:18:10;14.70;;;2.88;;
51732;SDS011;39139;53.144;6.244;2024-03-23T09:20:35;12.15;;;1.90;;
51732;SDS011;39139;53.144;6.244;2024-03-23T09:23:01;10.68;;;2.00;;
51732;SDS011;39139;53.144;6.244;2024-03-23T09:25:26;10.68;;;1.73;;
51732;SDS011;39139;53.144;6.244;2024-03-23T09:27:52;8.60;;;1.20;;
51732;SDS011;39139;53.144;6.244;2024-03-23T09:30:18;8.75;;;1.30;;
51732;SDS011;39139;53.144;6.244;2024-03-23T09:32:44;9.25;;;1.70;;
51732;SDS011;39139;53.144;6.244;2024-03-23T09:35:10;10.35;;;2.13;;
51732;SDS011;39139;53.144;6.244;2024-03-23T09:37:36;10.02;;;2.30;;
51732;SDS011;39139;53.144;6.244;2024-03-23T09:40:05;8.35;;;1.60;;
51732;SDS011;39139;53.144;6.244;2024-03-23T09:42:36;2.97;;;1.13;;
51732;SDS011;39139;53.144;6.244;2024-03-23T09:45:02;5.45;;;0.95;;
51732;SDS011;39139;53.144;6.244;2024-03-23T09:47:32;8.07;;;1.13;;
51732;SDS011;39139;53.144;6.244;2024-03-23T09:49:58;6.47;;;1.17;;
51732;SDS011;39139;53.144;6.244;2024-03-23T09:52:24;9.48;;;2.25;;
51732;SDS011;39139;53.144;6.244;2024-03-23T09:54:50;8.02;;;1.73;;
51732;SDS011;39139;53.144;6.244;2024-03-23T09:57:16;10.82;;;1.77;;
51732;SDS011;39139;53.144;6.244;2024-03-23T09:59:41;8.20;;;1.58;;
51732;SDS011;39139;53.144;6.244;2024-03-23T10:02:08;14.38;;;2.95;;
51732;SDS011;39139;53.144;6.244;2024-03-23T10:04:36;8.77;;;2.33;;
51732;SDS011;39139;53.144;6.244;2024-03-23T10:07:15;12.70;;;2.80;;
51732;SDS011;39139;53.144;6.244;2024-03-23T10:09:43;16.80;;;2.72;;
51732;SDS011;39139;53.144;6.244;2024-03-23T10:12:13;11.82;;;2.03;;
51732;SDS011;39139;53.144;6.244;2024-03-23T10:14:40;10.80;;;2.40;;
51732;SDS011;39139;53.144;6.244;2024-03-23T10:17:14;16.60;;;2.78;;
51732;SDS011;39139;53.144;6.244;2024-03-23T10:19:47;13.05;;;2.38;;
51732;SDS011;39139;53.144;6.244;2024-03-23T10:22:20;9.20;;;1.88;;
51732;SDS011;39139;53.144;6.244;2024-03-23T10:24:48;11.50;;;1.75;;
51732;SDS011;39139;53.144;6.244;2024-03-23T10:27:20;7.68;;;1.85;;
51732;SDS011;39139;53.144;6.244;2024-03-23T10:29:47;7.47;;;1.73;;
51732;SDS011;39139;53.144;6.244;2024-03-23T10:32:14;7.28;;;1.58;;
51732;SDS011;39139;53.144;6.244;2024-03-23T10:34:41;8.95;;;1.45;;
51732;SDS011;39139;53.144;6.244;2024-03-23T10:37:07;8.85;;;1.60;;
51732;SDS011;39139;53.144;6.244;2024-03-23T10:39:42;12.75;;;2.78;;
51732;SDS011;39139;53.144;6.244;2024-03-23T10:42:08;12.23;;;2.13;;
51732;SDS011;39139;53.144;6.244;2024-03-23T10:44:37;5.50;;;0.87;;
51732;SDS011;39139;53.144;6.244;2024-03-23T10:47:04;10.32;;;1.40;;
51732;SDS011;39139;53.144;6.244;2024-03-23T10:49:30;5.25;;;1.02;;
51732;SDS011;39139;53.144;6.244;2024-03-23T10:51:58;7.50;;;1.48;;
51732;SDS011;39139;53.144;6.244;2024-03-23T10:54:28;6.20;;;1.58;;
51732;SDS011;39139;53.144;6.244;2024-03-23T10:57:03;9.20;;;1.70;;
51732;SDS011;39139;53.144;6.244;2024-03-23T10:59:36;13.20;;;1.40;;
51732;SDS011;39139;53.144;6.244;2024-03-23T11:02:03;12.55;;;2.25;;
51732;SDS011;39139;53.144;6.244;2024-03-23T11:04:30;12.88;;;2.58;;
51732;SDS011;39139;53.144;6.244;2024-03-23T11:14:50;11.07;;;2.13;;
51732;SDS011;39139;53.144;6.244;2024-03-23T11:17:18;14.25;;;2.53;;
51732;SDS011;39139;53.144;6.244;2024-03-23T11:19:44;10.30;;;2.40;;
51732;SDS011;39139;53.144;6.244;2024-03-23T11:22:17;10.90;;;2.30;;
51732;SDS011;39139;53.144;6.244;2024-03-23T11:25:27;7.60;;;1.90;;
51732;SDS011;39139;53.144;6.244;2024-03-23T11:27:57;12.25;;;2.28;;
51732;SDS011;39139;53.144;6.244;2024-03-23T11:30:34;17.60;;;2.53;;
51732;SDS011;39139;53.144;6.244;2024-03-23T11:33:05;8.13;;;2.10;;
51732;SDS011;39139;53.144;6.244;2024-03-23T11:35:32;14.75;;;2.45;;
51732;SDS011;39139;53.144;6.244;2024-03-23T11:38:06;10.63;;;2.28;;
51732;SDS011;39139;53.144;6.244;2024-03-23T11:40:42;13.15;;;3.08;;
51732;SDS011;39139;53.144;6.244;2024-03-23T11:43:13;11.73;;;2.30;;
51732;SDS011;39139;53.144;6.244;2024-03-23T11:48:09;11.90;;;2.33;;
51732;SDS011;39139;53.144;6.244;2024-03-23T11:50:37;10.80;;;1.83;;
51732;SDS011;39139;53.144;6.244;2024-03-23T11:53:09;11.25;;;2.53;;
51732;SDS011;39139;53.144;6.244;2024-03-23T11:55:43;7.03;;;1.67;;
51732;SDS011;39139;53.144;6.244;2024-03-23T11:58:23;10.27;;;1.55;;
51732;SDS011;39139;53.144;6.244;2024-03-23T12:03:21;6.63;;;1.65;;
51732;SDS011;39139;53.144;6.244;2024-03-23T12:05:50;5.22;;;1.10;;
51732;SDS011;39139;53.144;6.244;2024-03-23T12:08:25;6.25;;;1.70;;
51732;SDS011;39139;53.144;6.244;2024-03-23T12:13:40;11.75;;;1.90;;
51732;SDS011;39139;53.144;6.244;2024-03-23T12:18:47;10.45;;;1.70;;
51732;SDS011;39139;53.144;6.244;2024-03-23T12:21:17;13.52;;;1.88;;
51732;SDS011;39139;53.144;6.244;2024-03-23T12:23:43;9.77;;;1.45;;
51732;SDS011;39139;53.144;6.244;2024-03-23T12:26:13;7.90;;;1.23;;
51732;SDS011;39139;53.144;6.244;2024-03-23T12:28:39;9.88;;;2.10;;
51732;SDS011;39139;53.144;6.244;2024-03-23T12:31:05;6.13;;;1.35;;
51732;SDS011;39139;53.144;6.244;2024-03-23T12:33:30;4.35;;;0.60;;
51732;SDS011;39139;53.144;6.244;2024-03-23T12:35:56;1.85;;;0.28;;
51732;SDS011;39139;53.144;6.244;2024-03-23T12:38:22;4.50;;;0.80;;
51732;SDS011;39139;53.144;6.244;2024-03-23T12:40:51;5.15;;;0.93;;
51732;SDS011;39139;53.144;6.244;2024-03-23T12:43:17;5.43;;;1.13;;
51732;SDS011;39139;53.144;6.244;2024-03-23T12:45:46;4.95;;;0.95;;
51732;SDS011;39139;53.144;6.244;2024-03-23T12:48:14;5.95;;;0.70;;
51732;SDS011;39139;53.144;6.244;2024-03-23T12:50:40;4.30;;;1.50;;
51732;SDS011;39139;53.144;6.244;2024-03-23T12:53:05;9.85;;;1.60;;
51732;SDS011;39139;53.144;6.244;2024-03-23T12:55:31;5.55;;;1.25;;
51732;SDS011;39139;53.144;6.244;2024-03-23T12:57:56;4.00;;;1.08;;
51732;SDS011;39139;53.144;6.244;2024-03-23T13:00:22;3.47;;;0.80;;
51732;SDS011;39139;53.144;6.244;2024-03-23T13:02:48;4.93;;;1.17;;
51732;SDS011;39139;53.144;6.244;2024-03-23T13:05:14;10.95;;;1.55;;
51732;SDS011;39139;53.144;6.244;2024-03-23T13:07:39;8.32;;;1.33;;
51732;SDS011;39139;53.144;6.244;2024-03-23T13:10:05;4.80;;;1.23;;
51732;SDS011;39139;53.144;6.244;2024-03-23T13:12:32;8.40;;;2.10;;
51732;SDS011;39139;53.144;6.244;2024-03-23T13:15:00;8.63;;;1.85;;
51732;SDS011;39139;53.144;6.244;2024-03-23T13:17:26;8.93;;;1.73;;
51732;SDS011;39139;53.144;6.244;2024-03-23T13:19:52;14.45;;;2.42;;
51732;SDS011;39139;53.144;6.244;2024-03-23T13:22:21;12.05;;;1.70;;
51732;SDS011;39139;53.144;6.244;2024-03-23T13:24:47;8.85;;;2.00;;
51732;SDS011;39139;53.144;6.244;2024-03-23T13:27:13;11.38;;;2.42;;
51732;SDS011;39139;53.144;6.244;2024-03-23T13:29:38;11.55;;;2.15;;
51732;SDS011;39139;53.144;6.244;2024-03-23T13:32:04;10.27;;;1.92;;
51732;SDS011;39139;53.144;6.244;2024-03-23T13:34:31;6.72;;;1.73;;
51732;SDS011;39139;53.144;6.244;2024-03-23T13:36:58;12.90;;;1.52;;
51732;SDS011;39139;53.144;6.244;2024-03-23T13:39:23;9.18;;;2.42;;
51732;SDS011;39139;53.144;6.244;2024-03-23T13:41:50;8.32;;;1.77;;
51732;SDS011;39139;53.144;6.244;2024-03-23T13:44:16;7.40;;;1.40;;
51732;SDS011;39139;53.144;6.244;2024-03-23T13:46:41;12.45;;;1.80;;
51732;SDS011;39139;53.144;6.244;2024-03-23T13:49:12;5.70;;;1.00;;
51732;SDS011;39139;53.144;6.244;2024-03-23T13:51:56;6.25;;;1.48;;
51732;SDS011;39139;53.144;6.244;2024-03-23T13:54:23;9.70;;;1.58;;
51732;SDS011;39139;53.144;6.244;2024-03-23T13:56:52;7.40;;;1.47;;
51732;SDS011;39139;53.144;6.244;2024-03-23T13:59:19;10.25;;;1.73;;
51732;SDS011;39139;53.144;6.244;2024-03-23T14:01:46;7.10;;;1.13;;
51732;SDS011;39139;53.144;6.244;2024-03-23T14:04:12;6.47;;;1.38;;
51732;SDS011;39139;53.144;6.244;2024-03-23T14:06:38;4.82;;;1.40;;
51732;SDS011;39139;53.144;6.244;2024-03-23T14:09:04;7.63;;;1.63;;
51732;SDS011;39139;53.144;6.244;2024-03-23T14:11:33;11.68;;;1.73;;
51732;SDS011;39139;53.144;6.244;2024-03-23T14:14:01;13.75;;;2.05;;
51732;SDS011;39139;53.144;6.244;2024-03-23T14:16:28;10.00;;;2.25;;
51732;SDS011;39139;53.144;6.244;2024-03-23T14:18:54;13.88;;;2.55;;
51732;SDS011;39139;53.144;6.244;2024-03-23T14:21:20;11.27;;;2.45;;
51732;SDS011;39139;53.144;6.244;2024-03-23T14:23:45;11.57;;;2.38;;
51732;SDS011;39139;53.144;6.244;2024-03-23T14:26:11;10.70;;;2.53;;
51732;SDS011;39139;53.144;6.244;2024-03-23T14:28:37;11.15;;;2.80;;
51732;SDS011;39139;53.144;6.244;2024-03-23T14:31:02;8.75;;;1.88;;
51732;SDS011;39139;53.144;6.244;2024-03-23T14:33:34;12.95;;;2.25;;
51732;SDS011;39139;53.144;6.244;2024-03-23T14:36:00;17.65;;;3.00;;
51732;SDS011;39139;53.144;6.244;2024-03-23T14:38:25;11.68;;;2.67;;
51732;SDS011;39139;53.144;6.244;2024-03-23T14:40:51;17.50;;;2.58;;
51732;SDS011;39139;53.144;6.244;2024-03-23T14:43:17;11.13;;;1.67;;
51732;SDS011;39139;53.144;6.244;2024-03-23T14:48:42;5.15;;;0.75;;
51732;SDS011;39139;53.144;6.244;2024-03-23T14:51:09;5.47;;;0.90;;
51732;SDS011;39139;53.144;6.244;2024-03-23T14:53:36;7.57;;;1.33;;
51732;SDS011;39139;53.144;6.244;2024-03-23T14:56:06;10.27;;;1.40;;
51732;SDS011;39139;53.144;6.244;2024-03-23T14:58:37;11.15;;;1.30;;
51732;SDS011;39139;53.144;6.244;2024-03-23T15:01:04;14.65;;;2.70;;
51732;SDS011;39139;53.144;6.244;2024-03-23T15:03:30;12.48;;;1.75;;
51732;SDS011;39139;53.144;6.244;2024-03-23T15:05:56;18.58;;;2.78;;
51732;SDS011;39139;53.144;6.244;2024-03-23T15:08:23;12.55;;;2.35;;
51732;SDS011;39139;53.144;6.244;2024-03-23T15:10:49;4.72;;;1.63;;
51732;SDS011;39139;53.144;6.244;2024-03-23T15:13:15;11.30;;;2.10;;
51732;SDS011;39139;53.144;6.244;2024-03-23T15:15:41;15.23;;;2.42;;
51732;SDS011;39139;53.144;6.244;2024-03-23T15:18:10;8.13;;;1.80;;
51732;SDS011;39139;53.144;6.244;2024-03-23T15:20:37;12.73;;;1.83;;
51732;SDS011;39139;53.144;6.244;2024-03-23T15:23:03;12.70;;;1.70;;
51732;SDS011;39139;53.144;6.244;2024-03-23T15:25:29;9.50;;;1.95;;
51732;SDS011;39139;53.144;6.244;2024-03-23T15:27:56;10.95;;;1.77;;
51732;SDS011;39139;53.144;6.244;2024-03-23T15:30:22;12.93;;;2.05;;
51732;SDS011;39139;53.144;6.244;2024-03-23T15:32:48;13.38;;;2.65;;
51732;SDS011;39139;53.144;6.244;2024-03-23T15:35:14;10.57;;;2.17;;
51732;SDS011;39139;53.144;6.244;2024-03-23T15:37:40;14.02;;;2.17;;
51732;SDS011;39139;53.144;6.244;2024-03-23T15:40:08;12.35;;;2.50;;
51732;SDS011;39139;53.144;6.244;2024-03-23T15:42:35;13.15;;;2.70;;
51732;SDS011;39139;53.144;6.244;2024-03-23T15:45:00;25.10;;;3.90;;
51732;SDS011;39139;53.144;6.244;2024-03-23T15:47:28;11.45;;;2.20;;
51732;SDS011;39139;53.144;6.244;2024-03-23T15:49:54;11.45;;;2.10;;
51732;SDS011;39139;53.144;6.244;2024-03-23T15:52:20;10.95;;;1.90;;